createdAt,value
2022-12-18T00:00:00.759Z,15.71
2022-12-18T00:02:27.991Z,15.66
2022-12-18T00:04:55.410Z,15.47
2022-12-18T00:07:22.625Z,15.94
2022-12-18T00:09:50.092Z,15.48
2022-12-18T00:14:45.710Z,16.00
2022-12-18T00:17:12.926Z,15.79
2022-12-18T00:19:40.223Z,15.62
2022-12-18T00:22:07.589Z,15.68
2022-12-18T00:24:34.803Z,15.40
2022-12-18T00:27:02.008Z,15.43
2022-12-18T00:29:29.384Z,15.59
2022-12-18T00:31:56.610Z,15.46
2022-12-18T00:34:23.847Z,15.47
2022-12-18T00:36:53.077Z,15.40
2022-12-18T00:39:20.389Z,15.40
2022-12-18T00:42:06.128Z,15.77
2022-12-18T00:44:33.444Z,15.18
2022-12-18T00:47:00.660Z,15.75
2022-12-18T00:49:28.059Z,15.67
2022-12-18T00:51:55.897Z,15.48
2022-12-18T00:54:23.289Z,15.96
2022-12-18T00:56:51.024Z,15.76
2022-12-18T00:59:18.833Z,15.56
2022-12-18T01:01:46.508Z,15.66
2022-12-18T01:04:14.484Z,15.46
2022-12-18T01:06:41.746Z,14.70
2022-12-18T01:09:09.015Z,15.80
2022-12-18T01:11:37.603Z,15.72
2022-12-18T01:14:05.216Z,15.70
2022-12-18T01:16:34.643Z,15.70
2022-12-18T01:19:02.130Z,15.56
2022-12-18T01:21:29.339Z,15.54
2022-12-18T01:23:57.445Z,15.20
2022-12-18T01:26:25.695Z,15.47
2022-12-18T01:28:53.060Z,15.31
2022-12-18T01:31:22.695Z,15.22
2022-12-18T01:33:50.351Z,15.47
2022-12-18T01:36:21.981Z,15.40
2022-12-18T01:38:49.731Z,15.16
2022-12-18T01:41:18.202Z,15.91
2022-12-18T01:43:58.992Z,15.76
2022-12-18T01:46:27.812Z,15.48
2022-12-18T01:49:01.283Z,15.44
2022-12-18T01:51:30.661Z,15.72
2022-12-18T01:53:58.915Z,15.27
2022-12-18T01:56:26.323Z,15.16
2022-12-18T01:59:03.347Z,15.49
2022-12-18T02:01:31.892Z,15.82
2022-12-18T02:04:22.116Z,15.54
2022-12-18T02:06:52.376Z,15.69
2022-12-18T02:09:22.281Z,15.63
2022-12-18T02:11:52.890Z,15.35
2022-12-18T02:14:36.322Z,15.33
2022-12-18T02:17:10.577Z,15.14
2022-12-18T02:19:46.701Z,15.24
2022-12-18T02:22:40.480Z,15.51
2022-12-18T02:25:07.700Z,15.72
2022-12-18T02:27:36.660Z,15.82
2022-12-18T02:30:05.653Z,15.74
2022-12-18T02:32:35.786Z,15.38
2022-12-18T02:35:04.370Z,15.75
2022-12-18T02:37:33.530Z,15.99
2022-12-18T02:40:04.909Z,15.65
2022-12-18T02:42:33.810Z,15.72
2022-12-18T02:45:02.414Z,15.86
2022-12-18T02:47:35.175Z,15.61
2022-12-18T02:50:21.154Z,15.66
2022-12-18T02:53:09.239Z,15.66
2022-12-18T02:55:55.906Z,15.89
2022-12-18T02:58:42.490Z,15.48
2022-12-18T03:01:20.871Z,15.62
2022-12-18T03:04:00.671Z,15.71
2022-12-18T03:06:31.117Z,15.80
2022-12-18T03:09:03.381Z,15.38
2022-12-18T03:11:52.488Z,15.89
2022-12-18T03:14:21.116Z,15.85
2022-12-18T03:16:52.092Z,15.80
2022-12-18T03:19:22.782Z,15.67
2022-12-18T03:21:54.320Z,16.02
2022-12-18T03:24:22.630Z,15.62
2022-12-18T03:26:53.535Z,15.59
2022-12-18T03:29:37.011Z,15.63
2022-12-18T03:32:08.945Z,15.61
2022-12-18T03:34:39.639Z,15.92
2022-12-18T03:37:08.175Z,15.84
2022-12-18T03:39:36.913Z,15.68
2022-12-18T03:42:18.977Z,15.62
2022-12-18T03:44:59.779Z,15.52
2022-12-18T03:47:36.646Z,15.64
2022-12-18T03:50:15.864Z,16.07
2022-12-18T03:53:17.017Z,15.37
2022-12-18T03:55:46.563Z,15.45
2022-12-18T03:58:17.523Z,15.37
2022-12-18T04:00:56.364Z,15.57
2022-12-18T04:03:26.640Z,15.47
2022-12-18T04:05:55.651Z,15.17
2022-12-18T04:08:24.336Z,15.61
2022-12-18T04:11:01.671Z,15.89
2022-12-18T04:13:30.856Z,15.68
2022-12-18T04:16:00.400Z,15.60
2022-12-18T04:18:28.468Z,15.61
2022-12-18T04:20:56.393Z,15.17
2022-12-18T04:23:23.884Z,15.74
2022-12-18T04:25:51.384Z,15.28
2022-12-18T04:28:28.795Z,15.83
2022-12-18T04:30:56.314Z,15.89
2022-12-18T04:33:23.591Z,15.47
2022-12-18T04:35:51.838Z,15.88
2022-12-18T04:38:19.171Z,15.63
2022-12-18T04:40:50.708Z,15.66
2022-12-18T04:43:25.810Z,15.85
2022-12-18T04:45:53.189Z,15.93
2022-12-18T04:48:21.307Z,15.62
2022-12-18T04:50:49.309Z,16.03
2022-12-18T04:53:16.460Z,15.67
2022-12-18T04:55:43.773Z,15.92
2022-12-18T04:58:11.030Z,15.93
2022-12-18T05:00:38.356Z,16.01
2022-12-18T05:03:05.753Z,15.99
2022-12-18T05:05:35.393Z,15.80
2022-12-18T05:08:02.720Z,16.11
2022-12-18T05:10:37.574Z,15.63
2022-12-18T05:13:05.559Z,16.02
2022-12-18T05:15:33.451Z,15.56
2022-12-18T05:18:01.600Z,15.87
2022-12-18T05:20:28.868Z,15.54
2022-12-18T05:22:56.912Z,15.83
2022-12-18T05:25:24.428Z,16.11
2022-12-18T05:27:51.769Z,15.99
2022-12-18T05:30:18.999Z,15.59
2022-12-18T05:32:46.300Z,15.59
2022-12-18T05:35:13.669Z,16.03
2022-12-18T05:37:43.319Z,15.68
2022-12-18T05:40:11.543Z,15.65
2022-12-18T05:42:39.071Z,15.65
2022-12-18T05:45:06.698Z,15.41
2022-12-18T05:47:34.054Z,15.59
2022-12-18T05:50:01.448Z,15.82
2022-12-18T05:52:28.713Z,15.95
2022-12-18T05:54:56.063Z,15.73
2022-12-18T05:57:23.434Z,15.60
2022-12-18T05:59:50.676Z,15.33
2022-12-18T06:02:17.937Z,15.42
2022-12-18T06:04:45.659Z,15.29
2022-12-18T06:07:12.860Z,15.84
2022-12-18T06:09:40.119Z,15.48
2022-12-18T06:12:07.503Z,15.79
2022-12-18T06:14:34.853Z,15.39
2022-12-18T06:17:02.058Z,15.53
2022-12-18T06:19:29.419Z,15.82
2022-12-18T06:21:58.826Z,15.88
2022-12-18T06:24:26.181Z,15.39
2022-12-18T06:26:53.402Z,15.77
2022-12-18T06:29:20.779Z,15.76
2022-12-18T06:31:48.123Z,15.66
2022-12-18T06:34:15.579Z,15.45
2022-12-18T06:36:42.819Z,15.73
2022-12-18T06:39:10.072Z,15.85
2022-12-18T06:41:37.473Z,15.82
2022-12-18T06:44:04.903Z,15.66
2022-12-18T06:46:33.281Z,15.44
2022-12-18T06:49:00.698Z,15.60
2022-12-18T06:51:27.941Z,15.77
2022-12-18T06:53:55.191Z,15.59
2022-12-18T06:56:22.656Z,15.53
2022-12-18T06:58:53.192Z,15.45
2022-12-18T07:01:20.775Z,15.86
2022-12-18T07:03:52.469Z,15.43
2022-12-18T07:06:21.182Z,15.77
2022-12-18T07:08:48.891Z,15.59
2022-12-18T07:11:17.341Z,15.88
2022-12-18T07:13:44.694Z,15.94
2022-12-18T07:16:18.438Z,15.54
2022-12-18T07:18:49.775Z,15.73
2022-12-18T07:21:18.017Z,15.34
2022-12-18T07:23:47.368Z,15.63
2022-12-18T07:26:15.232Z,15.52
2022-12-18T07:28:43.258Z,15.53
2022-12-18T07:31:12.218Z,14.87
2022-12-18T07:33:40.208Z,15.53
2022-12-18T07:36:08.830Z,15.49
2022-12-18T07:38:36.530Z,15.08
2022-12-18T07:41:04.927Z,15.40
2022-12-18T07:43:34.341Z,15.45
2022-12-18T07:46:01.611Z,15.35
2022-12-18T07:48:29.328Z,15.52
2022-12-18T07:51:06.616Z,15.43
2022-12-18T07:53:35.355Z,15.39
2022-12-18T07:58:51.643Z,15.60
2022-12-18T08:01:19.143Z,15.73
2022-12-18T08:03:46.525Z,15.48
2022-12-18T08:06:15.535Z,15.29
2022-12-18T08:08:43.315Z,15.36
2022-12-18T08:11:10.503Z,15.77
2022-12-18T08:13:38.168Z,15.68
2022-12-18T08:16:07.018Z,15.88
2022-12-18T08:18:34.774Z,15.61
2022-12-18T08:21:09.313Z,15.87
2022-12-18T08:23:42.305Z,16.00
2022-12-18T08:26:11.607Z,16.27
2022-12-18T08:28:39.159Z,15.37
2022-12-18T08:31:07.107Z,15.85
2022-12-18T08:33:34.599Z,15.82
2022-12-18T08:36:02.776Z,16.77
2022-12-18T08:38:29.975Z,16.29
2022-12-18T08:41:04.527Z,16.37
2022-12-18T08:43:50.136Z,16.43
2022-12-18T08:46:18.123Z,15.99
2022-12-18T08:48:45.483Z,17.28
2022-12-18T08:51:13.103Z,16.30
2022-12-18T08:53:40.850Z,16.41
2022-12-18T08:56:08.740Z,16.81
2022-12-18T08:58:35.990Z,15.98
2022-12-18T09:01:04.564Z,15.56
2022-12-18T09:03:34.139Z,16.18
2022-12-18T09:06:01.417Z,15.95
2022-12-18T09:08:29.311Z,16.22
2022-12-18T09:10:57.040Z,15.60
2022-12-18T09:13:24.405Z,15.89
2022-12-18T09:15:52.985Z,15.87
2022-12-18T09:18:20.814Z,16.03
2022-12-18T09:20:48.426Z,15.63
2022-12-18T09:23:15.871Z,15.80
2022-12-18T09:25:43.182Z,16.21
2022-12-18T09:28:20.060Z,15.78
2022-12-18T09:30:49.893Z,16.40
2022-12-18T09:33:17.735Z,15.83
2022-12-18T09:35:46.024Z,16.06
2022-12-18T09:38:15.154Z,16.04
2022-12-18T09:40:48.438Z,16.06
2022-12-18T09:43:24.756Z,15.73
2022-12-18T09:45:58.331Z,16.07
2022-12-18T09:48:33.318Z,16.10
2022-12-18T09:51:04.905Z,16.07
2022-12-18T09:53:35.980Z,16.11
2022-12-18T09:56:04.895Z,16.09
2022-12-18T09:58:43.321Z,15.79
2022-12-18T10:01:11.552Z,16.65
2022-12-18T10:03:38.772Z,16.85
2022-12-18T10:06:15.165Z,17.21
2022-12-18T10:09:01.196Z,16.63
2022-12-18T10:11:42.627Z,16.23
2022-12-18T10:14:25.288Z,16.48
2022-12-18T10:17:10.787Z,16.27
2022-12-18T10:19:50.412Z,16.25
2022-12-18T10:22:21.247Z,16.21
2022-12-18T10:25:00.728Z,16.41
2022-12-18T10:27:28.387Z,16.92
2022-12-18T10:29:55.747Z,16.63
2022-12-18T10:32:25.939Z,16.69
2022-12-18T10:35:00.190Z,16.39
2022-12-18T10:37:30.215Z,16.27
2022-12-18T10:40:21.571Z,16.36
2022-12-18T10:43:04.250Z,16.47
2022-12-18T10:45:31.760Z,16.73
2022-12-18T10:47:59.652Z,17.10
2022-12-18T10:51:08.688Z,16.76
2022-12-18T10:53:23.720Z,16.87
2022-12-18T10:55:52.891Z,17.07
2022-12-18T10:58:26.625Z,17.38
2022-12-18T11:01:13.042Z,17.02
2022-12-18T11:03:42.212Z,16.97
2022-12-18T11:06:11.759Z,17.08
2022-12-18T11:08:39.789Z,17.03
2022-12-18T11:11:23.174Z,17.49
2022-12-18T11:13:53.794Z,17.29
2022-12-18T11:16:21.395Z,17.03
2022-12-18T11:18:48.758Z,16.89
2022-12-18T11:21:16.067Z,16.74
2022-12-18T11:23:53.306Z,17.24
2022-12-18T11:26:21.630Z,17.27
2022-12-18T11:28:48.803Z,17.66
2022-12-18T11:31:16.131Z,17.53
2022-12-18T11:34:04.909Z,17.04
2022-12-18T11:36:39.315Z,16.99
2022-12-18T11:39:25.571Z,17.02
2022-12-18T11:42:18.874Z,17.41
2022-12-18T11:44:49.310Z,17.12
2022-12-18T11:47:35.613Z,17.01
2022-12-18T11:50:04.238Z,17.08
2022-12-18T11:52:38.356Z,17.38
2022-12-18T11:55:11.692Z,17.10
2022-12-18T11:57:56.279Z,17.45
2022-12-18T12:00:24.229Z,17.32
2022-12-18T12:03:10.034Z,17.24
2022-12-18T12:05:46.773Z,17.00
2022-12-18T12:08:20.030Z,17.27
2022-12-18T12:10:50.090Z,17.70
2022-12-18T12:13:35.614Z,17.54
2022-12-18T12:16:17.320Z,17.64
2022-12-18T12:18:44.550Z,17.48
2022-12-18T12:21:27.154Z,17.58
2022-12-18T12:24:32.852Z,17.87
2022-12-18T12:27:06.246Z,17.67
2022-12-18T12:29:37.302Z,17.60
2022-12-18T12:32:09.574Z,18.26
2022-12-18T12:35:00.835Z,18.24
2022-12-18T12:37:48.801Z,17.81
2022-12-18T12:40:50.272Z,17.90
2022-12-18T12:43:26.825Z,17.81
2022-12-18T12:46:15.367Z,17.96
2022-12-18T12:48:54.524Z,18.03
2022-12-18T12:51:42.123Z,17.58
2022-12-18T12:54:18.707Z,18.14
2022-12-18T12:56:59.483Z,17.86
2022-12-18T12:59:32.738Z,18.10
2022-12-18T13:02:19.257Z,17.95
2022-12-18T13:04:55.518Z,18.13
2022-12-18T13:07:32.868Z,17.96
2022-12-18T13:10:19.021Z,18.26
2022-12-18T13:13:11.046Z,18.19
2022-12-18T13:15:48.615Z,18.13
2022-12-18T13:18:20.988Z,18.25
2022-12-18T13:23:50.358Z,18.44
2022-12-18T13:26:19.125Z,18.03
2022-12-18T13:28:54.934Z,18.20
2022-12-18T13:31:40.835Z,18.00
2022-12-18T13:34:28.326Z,17.58
2022-12-18T13:36:57.038Z,18.05
2022-12-18T13:39:32.751Z,17.75
2022-12-18T13:42:08.661Z,17.98
2022-12-18T13:44:40.977Z,17.60
2022-12-18T13:47:29.292Z,18.48
2022-12-18T13:49:57.436Z,18.74
2022-12-18T13:52:36.346Z,18.16
2022-12-18T13:55:08.337Z,18.19
2022-12-18T13:57:39.484Z,18.25
2022-12-18T14:00:25.357Z,17.94
2022-12-18T14:02:53.189Z,17.84
2022-12-18T14:05:23.607Z,17.60
2022-12-18T14:07:51.891Z,17.78
2022-12-18T14:10:50.420Z,17.82
2022-12-18T14:13:09.490Z,17.55
2022-12-18T14:15:43.109Z,18.20
2022-12-18T14:18:10.438Z,17.82
2022-12-18T14:20:44.456Z,17.85
2022-12-18T14:23:32.527Z,18.04
2022-12-18T14:26:05.433Z,18.12
2022-12-18T14:28:33.283Z,17.68
2022-12-18T14:31:00.663Z,17.54
2022-12-18T14:33:28.504Z,18.23
2022-12-18T14:36:00.129Z,17.67
2022-12-18T14:38:28.920Z,17.83
2022-12-18T14:41:00.379Z,17.96
2022-12-18T14:43:28.715Z,18.28
2022-12-18T14:45:56.946Z,18.08
2022-12-18T14:48:35.887Z,17.43
2022-12-18T14:51:05.027Z,17.73
2022-12-18T14:53:40.542Z,18.18
2022-12-18T14:56:19.639Z,17.79
2022-12-18T14:58:48.595Z,17.81
2022-12-18T15:01:19.746Z,17.37
2022-12-18T15:03:47.265Z,17.88
2022-12-18T15:06:19.101Z,17.93
2022-12-18T15:08:46.417Z,17.47
2022-12-18T15:11:30.862Z,17.63
2022-12-18T15:13:58.839Z,17.33
2022-12-18T15:16:26.404Z,17.56
2022-12-18T15:18:54.367Z,17.21
2022-12-18T15:21:22.148Z,17.74
2022-12-18T15:23:53.319Z,17.56
2022-12-18T15:26:21.977Z,17.65
2022-12-18T15:28:51.067Z,17.77
2022-12-18T15:31:18.469Z,17.79
2022-12-18T15:33:54.816Z,17.37
2022-12-18T15:36:26.144Z,17.36
2022-12-18T15:38:55.446Z,17.43
2022-12-18T15:41:31.797Z,17.67
2022-12-18T15:43:59.082Z,17.15
2022-12-18T15:46:27.766Z,17.51
2022-12-18T15:49:01.405Z,17.33
2022-12-18T15:51:29.325Z,18.09
2022-12-18T15:53:57.909Z,18.26
2022-12-18T15:56:43.800Z,17.44
2022-12-18T15:59:15.651Z,17.75
2022-12-18T16:01:44.651Z,17.41
2022-12-18T16:04:12.988Z,17.58
2022-12-18T16:07:05.677Z,18.06
2022-12-18T16:09:27.966Z,17.80
2022-12-18T16:11:55.161Z,18.00
2022-12-18T16:14:23.364Z,17.93
2022-12-18T16:16:52.810Z,17.78
2022-12-18T16:19:20.505Z,17.72
2022-12-18T16:21:48.430Z,17.81
2022-12-18T16:24:19.812Z,17.64
2022-12-18T16:26:47.147Z,18.17
2022-12-18T16:29:14.355Z,18.30
2022-12-18T16:31:42.088Z,18.44
2022-12-18T16:34:13.262Z,18.42
2022-12-18T16:36:41.809Z,18.54
2022-12-18T16:39:10.172Z,18.58
2022-12-18T16:41:37.851Z,18.26
2022-12-18T16:44:05.101Z,18.31
2022-12-18T16:46:32.790Z,18.28
2022-12-18T16:49:00.539Z,17.97
2022-12-18T16:51:28.676Z,18.23
2022-12-18T16:53:56.824Z,18.24
2022-12-18T16:56:24.162Z,18.31
2022-12-18T16:58:55.194Z,18.02
2022-12-18T17:01:23.121Z,18.02
2022-12-18T17:03:54.499Z,18.33
2022-12-18T17:06:22.555Z,18.57
2022-12-18T17:08:55.080Z,17.96
2022-12-18T17:11:22.537Z,17.76
2022-12-18T17:13:50.680Z,18.29
2022-12-18T17:16:18.566Z,18.21
2022-12-18T17:18:45.908Z,18.54
2022-12-18T17:21:14.640Z,18.09
2022-12-18T17:23:43.958Z,18.36
2022-12-18T17:26:12.328Z,18.33
2022-12-18T17:28:40.340Z,17.78
2022-12-18T17:31:14.987Z,18.14
2022-12-18T17:33:42.913Z,18.13
2022-12-18T17:36:10.909Z,18.66
2022-12-18T17:38:38.968Z,17.65
2022-12-18T17:41:09.859Z,18.10
2022-12-18T17:43:37.228Z,18.26
2022-12-18T17:46:05.800Z,18.11
2022-12-18T17:48:35.155Z,17.77
2022-12-18T17:51:03.524Z,18.23
2022-12-18T17:53:32.231Z,17.96
2022-12-18T17:56:05.729Z,18.74
2022-12-18T17:58:34.360Z,18.39
2022-12-18T18:01:01.994Z,18.55
2022-12-18T18:03:29.351Z,17.72
2022-12-18T18:05:57.594Z,17.78
2022-12-18T18:08:25.570Z,18.08
2022-12-18T18:10:52.858Z,18.31
2022-12-18T18:13:46.477Z,18.68
2022-12-18T18:16:14.458Z,18.30
2022-12-18T18:18:41.755Z,18.04
2022-12-18T18:21:09.162Z,18.52
2022-12-18T18:23:36.317Z,18.00
2022-12-18T18:26:06.632Z,18.45
2022-12-18T18:28:34.324Z,18.04
2022-12-18T18:31:09.294Z,18.33
2022-12-18T18:33:38.265Z,18.28
2022-12-18T18:36:09.502Z,18.36
2022-12-18T18:38:36.761Z,18.46
2022-12-18T18:41:04.792Z,18.49
2022-12-18T18:43:32.519Z,18.36
2022-12-18T18:46:01.460Z,18.06
2022-12-18T18:48:31.115Z,18.19
2022-12-18T18:51:00.677Z,17.97
2022-12-18T18:53:28.629Z,18.44
2022-12-18T18:56:37.478Z,18.55
2022-12-18T18:58:46.913Z,18.92
2022-12-18T19:01:15.322Z,18.64
2022-12-18T19:03:43.483Z,18.05
2022-12-18T19:06:21.209Z,18.22
2022-12-18T19:08:48.881Z,18.54
2022-12-18T19:11:36.668Z,18.93
2022-12-18T19:14:05.806Z,18.26
2022-12-18T19:16:33.784Z,18.24
2022-12-18T19:19:02.243Z,18.53
2022-12-18T19:21:31.417Z,18.69
2022-12-18T19:24:02.849Z,18.02
2022-12-18T19:26:30.453Z,18.72
2022-12-18T19:29:05.258Z,18.78
2022-12-18T19:31:36.159Z,18.29
2022-12-18T19:34:08.004Z,18.17
2022-12-18T19:36:37.152Z,18.57
2022-12-18T19:39:12.392Z,18.73
2022-12-18T19:41:40.241Z,18.32
2022-12-18T19:44:08.672Z,18.98
2022-12-18T19:46:38.326Z,18.25
2022-12-18T19:49:09.888Z,18.48
2022-12-18T19:51:37.344Z,18.80
2022-12-18T19:54:04.674Z,18.30
2022-12-18T19:56:33.694Z,17.92
2022-12-18T19:59:01.510Z,18.58
2022-12-18T20:01:29.933Z,18.65
2022-12-18T20:03:59.005Z,18.49
2022-12-18T20:06:27.150Z,18.40
2022-12-18T20:08:59.071Z,18.69
2022-12-18T20:11:31.597Z,18.47
2022-12-18T20:14:02.042Z,18.01
2022-12-18T20:16:29.521Z,18.52
2022-12-18T20:18:58.383Z,18.67
2022-12-18T20:21:25.992Z,18.49
2022-12-18T20:23:54.533Z,17.94
2022-12-18T20:26:22.683Z,18.67
2022-12-18T20:28:50.188Z,18.37
2022-12-18T20:31:17.520Z,18.72
2022-12-18T20:33:48.701Z,18.48
2022-12-18T20:36:21.150Z,18.24
2022-12-18T20:38:49.835Z,18.21
2022-12-18T20:41:18.783Z,18.09
2022-12-18T20:43:46.173Z,18.50
2022-12-18T20:46:14.589Z,19.02
2022-12-18T20:48:42.479Z,18.72
2022-12-18T20:51:14.099Z,18.18
2022-12-18T20:53:42.305Z,18.34
2022-12-18T20:56:21.565Z,18.33
2022-12-18T20:58:49.903Z,18.84
2022-12-18T21:01:18.600Z,18.41
2022-12-18T21:03:46.584Z,18.70
2022-12-18T21:06:15.458Z,18.33
2022-12-18T21:08:42.924Z,18.44
2022-12-18T21:11:40.919Z,18.13
2022-12-18T21:14:13.047Z,18.88
2022-12-18T21:16:43.867Z,18.61
2022-12-18T21:19:16.185Z,18.66
2022-12-18T21:21:43.767Z,19.12
2022-12-18T21:24:11.798Z,19.17
2022-12-18T21:26:45.140Z,18.76
2022-12-18T21:29:18.082Z,18.68
2022-12-18T21:31:45.854Z,18.73
2022-12-18T21:34:18.145Z,18.30
2022-12-18T21:36:45.625Z,18.40
2022-12-18T21:39:14.934Z,18.18
2022-12-18T21:42:01.644Z,18.20
2022-12-18T21:44:29.200Z,18.36
2022-12-18T21:47:03.575Z,18.49
2022-12-18T21:49:36.881Z,18.03
2022-12-18T21:52:04.329Z,18.57
2022-12-18T21:54:31.595Z,18.92
2022-12-18T21:57:00.564Z,18.26
2022-12-18T21:59:32.286Z,18.29
2022-12-18T22:02:00.739Z,18.61
2022-12-18T22:04:28.207Z,18.29
2022-12-18T22:06:56.276Z,18.56
2022-12-18T22:09:24.329Z,18.24
2022-12-18T22:11:52.153Z,18.71
2022-12-18T22:14:19.703Z,18.22
2022-12-18T22:16:47.523Z,17.63
2022-12-18T22:19:15.333Z,18.39
2022-12-18T22:21:43.867Z,18.07
2022-12-18T22:24:14.554Z,18.54
2022-12-18T22:26:41.830Z,18.30
2022-12-18T22:29:31.687Z,17.80
2022-12-18T22:32:01.014Z,18.33
2022-12-18T22:34:28.268Z,18.36
2022-12-18T22:36:56.147Z,18.13
2022-12-18T22:39:24.528Z,18.21
2022-12-18T22:41:52.509Z,17.45
2022-12-18T22:44:20.151Z,18.59
2022-12-18T22:46:52.229Z,18.62
2022-12-18T22:49:27.933Z,18.44
2022-12-18T22:51:56.216Z,18.98
2022-12-18T22:54:23.625Z,19.10
2022-12-18T22:56:51.400Z,18.60
2022-12-18T22:59:19.631Z,18.34
2022-12-18T23:01:47.389Z,18.44
2022-12-18T23:04:16.458Z,17.71
2022-12-18T23:06:43.894Z,18.38
2022-12-18T23:09:18.263Z,18.37
2022-12-18T23:11:46.326Z,18.58
2022-12-18T23:14:13.807Z,18.55
2022-12-18T23:16:41.274Z,18.53
2022-12-18T23:19:09.601Z,18.66
2022-12-18T23:21:37.430Z,17.88
2022-12-18T23:24:04.838Z,18.27
2022-12-18T23:26:32.465Z,18.29
2022-12-18T23:29:01.459Z,18.44
2022-12-18T23:31:30.189Z,18.45
2022-12-18T23:33:58.476Z,18.46
2022-12-18T23:36:26.191Z,17.77
2022-12-18T23:38:57.762Z,18.16
2022-12-18T23:41:26.649Z,18.75
2022-12-18T23:43:54.222Z,18.31
2022-12-18T23:46:26.354Z,18.38
2022-12-18T23:48:53.965Z,18.32
2022-12-18T23:51:23.522Z,18.03
2022-12-18T23:53:51.074Z,18.46
2022-12-18T23:56:18.330Z,18.64
2022-12-18T23:58:45.559Z,18.27
